sensor_id;sensor_type;location;lat;lon;timestamp;temperature;humidity
36216;DHT22;22257;52.232;21.084;2022-07-23T00:01:52;24.10;99.90
36216;DHT22;22257;52.232;21.084;2022-07-23T00:04:18;24.10;99.90
36216;DHT22;22257;52.232;21.084;2022-07-23T00:06:44;24.00;99.90
36216;DHT22;22257;52.232;21.084;2022-07-23T00:09:10;24.00;99.90
36216;DHT22;22257;52.232;21.084;2022-07-23T00:11:37;23.90;99.90
36216;DHT22;22257;52.232;21.084;2022-07-23T00:14:03;23.90;99.90
36216;DHT22;22257;52.232;21.084;2022-07-23T00:16:29;23.80;99.90
36216;DHT22;22257;52.232;21.084;2022-07-23T00:18:55;23.80;99.90
36216;DHT22;22257;52.232;21.084;2022-07-23T00:21:21;23.80;99.90
36216;DHT22;22257;52.232;21.084;2022-07-23T00:23:47;23.70;99.90
36216;DHT22;22257;52.232;21.084;2022-07-23T00:26:13;23.70;99.90
36216;DHT22;22257;52.232;21.084;2022-07-23T00:28:39;23.60;99.90
36216;DHT22;22257;52.232;21.084;2022-07-23T00:31:05;23.60;99.90
36216;DHT22;22257;52.232;21.084;2022-07-23T00:33:31;23.50;99.90
36216;DHT22;22257;52.232;21.084;2022-07-23T00:35:58;23.50;99.90
36216;DHT22;22257;52.232;21.084;2022-07-23T00:38:24;23.50;99.90
36216;DHT22;22257;52.232;21.084;2022-07-23T00:40:50;23.40;99.90
36216;DHT22;22257;52.232;21.084;2022-07-23T00:43:16;23.40;99.90
36216;DHT22;22257;52.232;21.084;2022-07-23T00:45:42;23.40;99.90
36216;DHT22;22257;52.232;21.084;2022-07-23T00:48:08;23.30;99.90
36216;DHT22;22257;52.232;21.084;2022-07-23T00:50:34;23.20;99.90
36216;DHT22;22257;52.232;21.084;2022-07-23T00:53:01;23.20;99.90
36216;DHT22;22257;52.232;21.084;2022-07-23T00:55:27;23.10;99.90
36216;DHT22;22257;52.232;21.084;2022-07-23T00:57:55;23.20;99.90
36216;DHT22;22257;52.232;21.084;2022-07-23T01:00:21;23.10;99.90
36216;DHT22;22257;52.232;21.084;2022-07-23T01:02:47;23.10;99.90
36216;DHT22;22257;52.232;21.084;2022-07-23T01:05:13;23.00;99.90
36216;DHT22;22257;52.232;21.084;2022-07-23T01:07:40;23.00;99.90
36216;DHT22;22257;52.232;21.084;2022-07-23T01:10:08;22.90;99.90
36216;DHT22;22257;52.232;21.084;2022-07-23T01:12:36;22.90;99.90
36216;DHT22;22257;52.232;21.084;2022-07-23T01:15:03;22.80;99.90
36216;DHT22;22257;52.232;21.084;2022-07-23T01:17:30;22.80;99.90
36216;DHT22;22257;52.232;21.084;2022-07-23T01:19:56;22.80;99.90
36216;DHT22;22257;52.232;21.084;2022-07-23T01:22:23;22.70;99.90
36216;DHT22;22257;52.232;21.084;2022-07-23T01:24:49;22.70;99.90
36216;DHT22;22257;52.232;21.084;2022-07-23T01:27:15;22.60;99.90
36216;DHT22;22257;52.232;21.084;2022-07-23T01:29:43;22.60;99.90
36216;DHT22;22257;52.232;21.084;2022-07-23T01:32:09;22.50;99.90
36216;DHT22;22257;52.232;21.084;2022-07-23T01:34:35;22.40;99.90
36216;DHT22;22257;52.232;21.084;2022-07-23T01:37:01;22.40;99.90
36216;DHT22;22257;52.232;21.084;2022-07-23T01:39:27;22.40;99.90
36216;DHT22;22257;52.232;21.084;2022-07-23T01:41:53;22.30;99.90
36216;DHT22;22257;52.232;21.084;2022-07-23T01:44:19;22.30;99.90
36216;DHT22;22257;52.232;21.084;2022-07-23T01:46:45;22.20;99.90
36216;DHT22;22257;52.232;21.084;2022-07-23T01:49:12;22.20;99.90
36216;DHT22;22257;52.232;21.084;2022-07-23T01:51:38;22.20;99.90
36216;DHT22;22257;52.232;21.084;2022-07-23T01:54:06;22.20;99.90
36216;DHT22;22257;52.232;21.084;2022-07-23T01:56:32;22.10;99.90
36216;DHT22;22257;52.232;21.084;2022-07-23T01:58:58;22.10;99.90
36216;DHT22;22257;52.232;21.084;2022-07-23T02:01:24;22.10;99.90
36216;DHT22;22257;52.232;21.084;2022-07-23T02:03:50;22.10;99.90
36216;DHT22;22257;52.232;21.084;2022-07-23T02:06:16;22.10;99.90
36216;DHT22;22257;52.232;21.084;2022-07-23T02:08:42;22.10;99.90
36216;DHT22;22257;52.232;21.084;2022-07-23T02:11:08;22.10;99.90
36216;DHT22;22257;52.232;21.084;2022-07-23T02:13:34;22.10;99.90
36216;DHT22;22257;52.232;21.084;2022-07-23T02:16:00;22.10;99.90
36216;DHT22;22257;52.232;21.084;2022-07-23T02:18:26;22.20;99.90
36216;DHT22;22257;52.232;21.084;2022-07-23T02:20:53;22.10;99.90
36216;DHT22;22257;52.232;21.084;2022-07-23T02:23:19;22.10;99.90
36216;DHT22;22257;52.232;21.084;2022-07-23T02:25:45;22.10;99.90
36216;DHT22;22257;52.232;21.084;2022-07-23T02:28:11;22.00;99.90
36216;DHT22;22257;52.232;21.084;2022-07-23T02:30:37;22.00;99.90
36216;DHT22;22257;52.232;21.084;2022-07-23T02:33:05;22.00;99.90
36216;DHT22;22257;52.232;21.084;2022-07-23T02:35:31;22.00;99.90
36216;DHT22;22257;52.232;21.084;2022-07-23T02:37:57;22.10;99.90
36216;DHT22;22257;52.232;21.084;2022-07-23T02:40:23;22.20;99.90
36216;DHT22;22257;52.232;21.084;2022-07-23T02:42:49;22.20;99.90
36216;DHT22;22257;52.232;21.084;2022-07-23T02:45:15;22.20;99.90
36216;DHT22;22257;52.232;21.084;2022-07-23T02:47:41;22.20;99.90
36216;DHT22;22257;52.232;21.084;2022-07-23T02:50:08;22.20;99.90
36216;DHT22;22257;52.232;21.084;2022-07-23T02:52:35;22.20;99.90
36216;DHT22;22257;52.232;21.084;2022-07-23T02:55:01;22.20;99.90
36216;DHT22;22257;52.232;21.084;2022-07-23T02:57:27;22.20;99.90
36216;DHT22;22257;52.232;21.084;2022-07-23T02:59:54;22.20;99.90
36216;DHT22;22257;52.232;21.084;2022-07-23T03:02:20;22.20;99.90
36216;DHT22;22257;52.232;21.084;2022-07-23T03:04:46;22.20;99.90
36216;DHT22;22257;52.232;21.084;2022-07-23T03:07:11;22.20;99.90
36216;DHT22;22257;52.232;21.084;2022-07-23T03:09:38;22.10;99.90
36216;DHT22;22257;52.232;21.084;2022-07-23T03:12:04;22.10;99.90
36216;DHT22;22257;52.232;21.084;2022-07-23T03:14:30;22.00;99.90
36216;DHT22;22257;52.232;21.084;2022-07-23T03:16:56;22.00;99.90
36216;DHT22;22257;52.232;21.084;2022-07-23T03:19:22;21.90;99.90
36216;DHT22;22257;52.232;21.084;2022-07-23T03:21:48;21.90;99.90
36216;DHT22;22257;52.232;21.084;2022-07-23T03:24:14;21.90;99.90
36216;DHT22;22257;52.232;21.084;2022-07-23T03:26:40;22.00;99.90
36216;DHT22;22257;52.232;21.084;2022-07-23T03:29:06;22.10;99.90
36216;DHT22;22257;52.232;21.084;2022-07-23T03:31:32;22.10;99.90
36216;DHT22;22257;52.232;21.084;2022-07-23T03:33:59;22.20;99.90
36216;DHT22;22257;52.232;21.084;2022-07-23T03:36:25;22.20;99.90
36216;DHT22;22257;52.232;21.084;2022-07-23T03:38:53;22.20;99.90
36216;DHT22;22257;52.232;21.084;2022-07-23T03:41:20;22.20;99.90
36216;DHT22;22257;52.232;21.084;2022-07-23T03:43:47;22.30;99.90
36216;DHT22;22257;52.232;21.084;2022-07-23T03:46:13;22.20;99.90
36216;DHT22;22257;52.232;21.084;2022-07-23T03:48:39;22.30;99.90
36216;DHT22;22257;52.232;21.084;2022-07-23T03:51:05;22.20;99.90
36216;DHT22;22257;52.232;21.084;2022-07-23T03:53:31;22.30;99.90
36216;DHT22;22257;52.232;21.084;2022-07-23T03:55:57;22.30;99.90
36216;DHT22;22257;52.232;21.084;2022-07-23T03:58:23;22.30;99.90
36216;DHT22;22257;52.232;21.084;2022-07-23T04:00:50;22.30;99.90
36216;DHT22;22257;52.232;21.084;2022-07-23T04:03:16;22.30;99.90
36216;DHT22;22257;52.232;21.084;2022-07-23T04:05:42;22.30;99.90
36216;DHT22;22257;52.232;21.084;2022-07-23T04:08:08;22.30;99.90
36216;DHT22;22257;52.232;21.084;2022-07-23T04:10:34;22.30;99.90
36216;DHT22;22257;52.232;21.084;2022-07-23T04:13:00;22.30;99.90
36216;DHT22;22257;52.232;21.084;2022-07-23T04:15:26;22.30;99.90
36216;DHT22;22257;52.232;21.084;2022-07-23T04:17:52;22.30;99.90
36216;DHT22;22257;52.232;21.084;2022-07-23T04:20:18;22.30;99.90
36216;DHT22;22257;52.232;21.084;2022-07-23T04:22:44;22.30;99.90
36216;DHT22;22257;52.232;21.084;2022-07-23T04:25:11;22.30;99.90
36216;DHT22;22257;52.232;21.084;2022-07-23T04:27:37;22.20;99.90
36216;DHT22;22257;52.232;21.084;2022-07-23T04:30:04;22.20;99.90
36216;DHT22;22257;52.232;21.084;2022-07-23T04:32:30;21.80;99.90
36216;DHT22;22257;52.232;21.084;2022-07-23T04:34:56;22.20;99.90
36216;DHT22;22257;52.232;21.084;2022-07-23T04:37:22;22.20;99.90
36216;DHT22;22257;52.232;21.084;2022-07-23T04:39:48;22.20;99.90
36216;DHT22;22257;52.232;21.084;2022-07-23T04:42:14;22.20;99.90
36216;DHT22;22257;52.232;21.084;2022-07-23T04:44:40;22.30;99.90
36216;DHT22;22257;52.232;21.084;2022-07-23T04:47:06;22.20;99.90
36216;DHT22;22257;52.232;21.084;2022-07-23T04:49:32;22.20;99.90
36216;DHT22;22257;52.232;21.084;2022-07-23T04:51:58;22.20;99.90
36216;DHT22;22257;52.232;21.084;2022-07-23T04:54:24;22.20;99.90
36216;DHT22;22257;52.232;21.084;2022-07-23T04:56:51;22.20;99.90
36216;DHT22;22257;52.232;21.084;2022-07-23T04:59:17;22.30;99.90
36216;DHT22;22257;52.232;21.084;2022-07-23T05:01:43;22.30;99.90
36216;DHT22;22257;52.232;21.084;2022-07-23T05:04:09;22.40;99.90
36216;DHT22;22257;52.232;21.084;2022-07-23T05:06:35;22.40;99.90
36216;DHT22;22257;52.232;21.084;2022-07-23T05:09:01;22.50;99.90
36216;DHT22;22257;52.232;21.084;2022-07-23T05:11:27;22.50;99.90
36216;DHT22;22257;52.232;21.084;2022-07-23T05:13:53;22.60;99.90
36216;DHT22;22257;52.232;21.084;2022-07-23T05:16:19;22.60;99.90
36216;DHT22;22257;52.232;21.084;2022-07-23T05:18:45;22.60;99.90
36216;DHT22;22257;52.232;21.084;2022-07-23T05:21:12;22.70;99.90
36216;DHT22;22257;52.232;21.084;2022-07-23T05:23:38;22.80;99.90
36216;DHT22;22257;52.232;21.084;2022-07-23T05:26:04;22.80;99.90
36216;DHT22;22257;52.232;21.084;2022-07-23T05:28:30;22.90;99.90
36216;DHT22;22257;52.232;21.084;2022-07-23T05:30:56;23.00;99.90
36216;DHT22;22257;52.232;21.084;2022-07-23T05:33:22;23.10;99.90
36216;DHT22;22257;52.232;21.084;2022-07-23T05:35:48;23.10;99.90
36216;DHT22;22257;52.232;21.084;2022-07-23T05:38:15;23.20;99.90
36216;DHT22;22257;52.232;21.084;2022-07-23T05:40:41;23.30;99.90
36216;DHT22;22257;52.232;21.084;2022-07-23T05:43:07;23.40;99.90
36216;DHT22;22257;52.232;21.084;2022-07-23T05:45:33;23.50;99.90
36216;DHT22;22257;52.232;21.084;2022-07-23T05:47:59;23.50;99.90
36216;DHT22;22257;52.232;21.084;2022-07-23T05:50:26;23.60;99.90
36216;DHT22;22257;52.232;21.084;2022-07-23T05:52:52;23.80;99.90
36216;DHT22;22257;52.232;21.084;2022-07-23T05:55:18;23.90;99.90
36216;DHT22;22257;52.232;21.084;2022-07-23T05:57:44;23.90;99.90
36216;DHT22;22257;52.232;21.084;2022-07-23T06:00:11;24.00;99.90
36216;DHT22;22257;52.232;21.084;2022-07-23T06:02:38;24.00;99.90
36216;DHT22;22257;52.232;21.084;2022-07-23T06:05:06;24.00;99.90
36216;DHT22;22257;52.232;21.084;2022-07-23T06:07:34;24.10;99.90
36216;DHT22;22257;52.232;21.084;2022-07-23T06:10:00;24.20;99.90
36216;DHT22;22257;52.232;21.084;2022-07-23T06:12:26;24.40;99.90
36216;DHT22;22257;52.232;21.084;2022-07-23T06:14:53;24.40;99.90
36216;DHT22;22257;52.232;21.084;2022-07-23T06:17:19;24.50;99.90
36216;DHT22;22257;52.232;21.084;2022-07-23T06:19:45;24.60;99.90
36216;DHT22;22257;52.232;21.084;2022-07-23T06:22:11;24.70;99.90
36216;DHT22;22257;52.232;21.084;2022-07-23T06:24:37;24.70;99.90
36216;DHT22;22257;52.232;21.084;2022-07-23T06:27:03;24.80;99.90
36216;DHT22;22257;52.232;21.084;2022-07-23T06:29:30;24.90;99.90
36216;DHT22;22257;52.232;21.084;2022-07-23T06:31:56;25.00;99.90
36216;DHT22;22257;52.232;21.084;2022-07-23T06:34:22;25.10;99.90
36216;DHT22;22257;52.232;21.084;2022-07-23T06:36:48;25.30;99.90
36216;DHT22;22257;52.232;21.084;2022-07-23T06:39:14;25.30;99.90
36216;DHT22;22257;52.232;21.084;2022-07-23T06:41:40;25.50;99.90
36216;DHT22;22257;52.232;21.084;2022-07-23T06:44:06;25.50;99.90
36216;DHT22;22257;52.232;21.084;2022-07-23T06:46:32;25.60;99.90
36216;DHT22;22257;52.232;21.084;2022-07-23T06:48:59;25.70;99.90
36216;DHT22;22257;52.232;21.084;2022-07-23T06:51:26;25.70;99.90
36216;DHT22;22257;52.232;21.084;2022-07-23T06:53:52;25.90;99.90
36216;DHT22;22257;52.232;21.084;2022-07-23T06:56:18;26.00;99.90
36216;DHT22;22257;52.232;21.084;2022-07-23T06:58:44;26.00;99.90
36216;DHT22;22257;52.232;21.084;2022-07-23T07:01:10;26.10;99.90
36216;DHT22;22257;52.232;21.084;2022-07-23T07:03:36;26.20;99.90
36216;DHT22;22257;52.232;21.084;2022-07-23T07:06:03;26.30;99.90
36216;DHT22;22257;52.232;21.084;2022-07-23T07:08:30;26.40;99.90
36216;DHT22;22257;52.232;21.084;2022-07-23T07:10:56;26.50;99.90
36216;DHT22;22257;52.232;21.084;2022-07-23T07:13:22;26.50;99.90
36216;DHT22;22257;52.232;21.084;2022-07-23T07:15:48;26.50;99.90
36216;DHT22;22257;52.232;21.084;2022-07-23T07:18:14;26.60;99.90
36216;DHT22;22257;52.232;21.084;2022-07-23T07:20:40;26.60;99.90
36216;DHT22;22257;52.232;21.084;2022-07-23T07:23:06;26.70;99.90
36216;DHT22;22257;52.232;21.084;2022-07-23T07:25:33;26.80;99.90
36216;DHT22;22257;52.232;21.084;2022-07-23T07:27:59;26.90;99.90
36216;DHT22;22257;52.232;21.084;2022-07-23T07:30:25;27.00;99.90
36216;DHT22;22257;52.232;21.084;2022-07-23T07:32:51;27.00;99.90
36216;DHT22;22257;52.232;21.084;2022-07-23T07:35:18;27.00;99.90
36216;DHT22;22257;52.232;21.084;2022-07-23T07:37:44;27.10;99.90
36216;DHT22;22257;52.232;21.084;2022-07-23T07:40:12;27.10;99.90
36216;DHT22;22257;52.232;21.084;2022-07-23T07:42:45;27.10;99.90
36216;DHT22;22257;52.232;21.084;2022-07-23T07:45:11;27.20;99.90
36216;DHT22;22257;52.232;21.084;2022-07-23T07:47:38;27.30;99.90
36216;DHT22;22257;52.232;21.084;2022-07-23T07:50:05;27.40;99.90
36216;DHT22;22257;52.232;21.084;2022-07-23T07:52:31;27.50;99.90
36216;DHT22;22257;52.232;21.084;2022-07-23T07:54:57;27.50;99.90
36216;DHT22;22257;52.232;21.084;2022-07-23T07:57:23;27.50;99.90
36216;DHT22;22257;52.232;21.084;2022-07-23T07:59:49;27.60;99.90
36216;DHT22;22257;52.232;21.084;2022-07-23T08:02:15;27.70;99.90
36216;DHT22;22257;52.232;21.084;2022-07-23T08:04:41;27.80;99.90
36216;DHT22;22257;52.232;21.084;2022-07-23T08:07:07;27.80;99.90
36216;DHT22;22257;52.232;21.084;2022-07-23T08:09:33;27.80;99.90
36216;DHT22;22257;52.232;21.084;2022-07-23T08:11:59;28.00;99.90
36216;DHT22;22257;52.232;21.084;2022-07-23T08:14:25;28.10;99.90
36216;DHT22;22257;52.232;21.084;2022-07-23T08:16:51;28.20;99.90
36216;DHT22;22257;52.232;21.084;2022-07-23T08:19:18;28.30;99.90
36216;DHT22;22257;52.232;21.084;2022-07-23T08:21:43;28.40;99.90
36216;DHT22;22257;52.232;21.084;2022-07-23T08:24:09;28.50;99.90
36216;DHT22;22257;52.232;21.084;2022-07-23T08:26:36;28.50;99.90
36216;DHT22;22257;52.232;21.084;2022-07-23T08:29:02;28.50;99.90
36216;DHT22;22257;52.232;21.084;2022-07-23T08:31:28;28.60;99.90
36216;DHT22;22257;52.232;21.084;2022-07-23T08:33:54;28.80;99.90
36216;DHT22;22257;52.232;21.084;2022-07-23T08:36:21;28.70;99.90
36216;DHT22;22257;52.232;21.084;2022-07-23T08:38:47;28.70;99.90
36216;DHT22;22257;52.232;21.084;2022-07-23T08:41:14;28.50;99.90
36216;DHT22;22257;52.232;21.084;2022-07-23T08:43:40;28.50;99.90
36216;DHT22;22257;52.232;21.084;2022-07-23T08:46:09;28.70;99.90
36216;DHT22;22257;52.232;21.084;2022-07-23T08:48:35;28.70;99.90
36216;DHT22;22257;52.232;21.084;2022-07-23T08:51:03;28.60;99.90
36216;DHT22;22257;52.232;21.084;2022-07-23T08:53:31;28.70;99.90
36216;DHT22;22257;52.232;21.084;2022-07-23T08:56:01;28.90;99.00
36216;DHT22;22257;52.232;21.084;2022-07-23T08:58:27;29.00;98.70
36216;DHT22;22257;52.232;21.084;2022-07-23T09:00:54;29.10;98.90
36216;DHT22;22257;52.232;21.084;2022-07-23T09:03:24;29.20;99.10
36216;DHT22;22257;52.232;21.084;2022-07-23T09:05:52;29.20;99.00
36216;DHT22;22257;52.232;21.084;2022-07-23T09:08:33;29.40;98.10
36216;DHT22;22257;52.232;21.084;2022-07-23T09:10:58;29.30;96.70
36216;DHT22;22257;52.232;21.084;2022-07-23T09:16:15;29.20;95.40
36216;DHT22;22257;52.232;21.084;2022-07-23T09:18:51;29.30;95.50
36216;DHT22;22257;52.232;21.084;2022-07-23T09:23:53;29.20;94.20
36216;DHT22;22257;52.232;21.084;2022-07-23T09:26:28;29.30;93.20
36216;DHT22;22257;52.232;21.084;2022-07-23T09:29:17;29.40;93.50
36216;DHT22;22257;52.232;21.084;2022-07-23T09:31:45;29.50;94.30
36216;DHT22;22257;52.232;21.084;2022-07-23T09:36:43;30.00;92.10
36216;DHT22;22257;52.232;21.084;2022-07-23T09:39:10;30.00;90.50
36216;DHT22;22257;52.232;21.084;2022-07-23T09:41:40;30.00;90.40
36216;DHT22;22257;52.232;21.084;2022-07-23T09:44:13;30.10;90.00
36216;DHT22;22257;52.232;21.084;2022-07-23T09:46:36;30.20;90.90
36216;DHT22;22257;52.232;21.084;2022-07-23T09:49:23;30.20;91.10
36216;DHT22;22257;52.232;21.084;2022-07-23T09:51:59;30.20;90.00
36216;DHT22;22257;52.232;21.084;2022-07-23T09:57:05;30.30;85.40
36216;DHT22;22257;52.232;21.084;2022-07-23T09:59:35;29.90;85.60
36216;DHT22;22257;52.232;21.084;2022-07-23T10:02:02;30.10;87.30
36216;DHT22;22257;52.232;21.084;2022-07-23T10:04:30;30.30;87.30
36216;DHT22;22257;52.232;21.084;2022-07-23T10:06:59;30.50;85.10
36216;DHT22;22257;52.232;21.084;2022-07-23T10:09:34;30.50;85.00
36216;DHT22;22257;52.232;21.084;2022-07-23T10:12:03;30.30;85.80
36216;DHT22;22257;52.232;21.084;2022-07-23T10:14:34;30.10;86.10
36216;DHT22;22257;52.232;21.084;2022-07-23T10:17:03;30.30;84.50
36216;DHT22;22257;52.232;21.084;2022-07-23T10:19:30;30.40;84.50
36216;DHT22;22257;52.232;21.084;2022-07-23T10:22:03;30.70;83.00
36216;DHT22;22257;52.232;21.084;2022-07-23T10:27:37;30.70;84.30
36216;DHT22;22257;52.232;21.084;2022-07-23T10:30:10;30.70;81.40
36216;DHT22;22257;52.232;21.084;2022-07-23T10:32:49;30.50;83.70
36216;DHT22;22257;52.232;21.084;2022-07-23T10:35:36;30.50;84.50
36216;DHT22;22257;52.232;21.084;2022-07-23T10:40:52;30.70;79.70
36216;DHT22;22257;52.232;21.084;2022-07-23T10:43:13;31.00;80.40
36216;DHT22;22257;52.232;21.084;2022-07-23T10:45:37;31.20;79.00
36216;DHT22;22257;52.232;21.084;2022-07-23T10:53:54;31.10;75.70
36216;DHT22;22257;52.232;21.084;2022-07-23T10:59:23;31.40;75.90
36216;DHT22;22257;52.232;21.084;2022-07-23T11:01:49;31.40;76.70
36216;DHT22;22257;52.232;21.084;2022-07-23T11:04:16;31.60;77.60
36216;DHT22;22257;52.232;21.084;2022-07-23T11:09:29;31.90;77.80
36216;DHT22;22257;52.232;21.084;2022-07-23T11:15:07;32.10;76.30
36216;DHT22;22257;52.232;21.084;2022-07-23T11:20:21;32.60;73.00
36216;DHT22;22257;52.232;21.084;2022-07-23T11:22:54;32.60;73.00
36216;DHT22;22257;52.232;21.084;2022-07-23T11:28:14;32.50;71.10
36216;DHT22;22257;52.232;21.084;2022-07-23T11:30:40;32.20;71.00
36216;DHT22;22257;52.232;21.084;2022-07-23T11:35:45;31.80;71.50
36216;DHT22;22257;52.232;21.084;2022-07-23T11:38:20;31.70;72.30
36216;DHT22;22257;52.232;21.084;2022-07-23T11:40:49;31.70;72.50
36216;DHT22;22257;52.232;21.084;2022-07-23T11:43:16;31.90;72.70
36216;DHT22;22257;52.232;21.084;2022-07-23T11:45:45;32.20;71.10
36216;DHT22;22257;52.232;21.084;2022-07-23T11:48:23;32.20;71.40
36216;DHT22;22257;52.232;21.084;2022-07-23T11:50:48;32.00;72.00
36216;DHT22;22257;52.232;21.084;2022-07-23T11:53:26;32.40;71.00
36216;DHT22;22257;52.232;21.084;2022-07-23T11:55:54;32.50;71.40
36216;DHT22;22257;52.232;21.084;2022-07-23T11:58:21;32.70;70.50
36216;DHT22;22257;52.232;21.084;2022-07-23T12:00:47;32.80;71.40
36216;DHT22;22257;52.232;21.084;2022-07-23T12:03:13;32.90;70.20
36216;DHT22;22257;52.232;21.084;2022-07-23T12:05:40;32.70;70.40
36216;DHT22;22257;52.232;21.084;2022-07-23T12:08:08;32.80;70.00
36216;DHT22;22257;52.232;21.084;2022-07-23T12:10:40;32.70;70.80
36216;DHT22;22257;52.232;21.084;2022-07-23T12:15:40;32.40;68.80
36216;DHT22;22257;52.232;21.084;2022-07-23T12:18:09;32.20;67.60
36216;DHT22;22257;52.232;21.084;2022-07-23T12:20:39;32.10;69.20
36216;DHT22;22257;52.232;21.084;2022-07-23T12:23:07;32.30;69.80
36216;DHT22;22257;52.232;21.084;2022-07-23T12:25:39;32.50;69.30
36216;DHT22;22257;52.232;21.084;2022-07-23T12:28:09;32.60;69.60
36216;DHT22;22257;52.232;21.084;2022-07-23T12:30:41;32.70;69.00
36216;DHT22;22257;52.232;21.084;2022-07-23T12:33:10;32.60;69.20
36216;DHT22;22257;52.232;21.084;2022-07-23T12:35:39;32.50;69.60
36216;DHT22;22257;52.232;21.084;2022-07-23T12:38:10;32.20;69.90
36216;DHT22;22257;52.232;21.084;2022-07-23T12:40:45;32.20;69.90
36216;DHT22;22257;52.232;21.084;2022-07-23T12:43:26;32.30;68.90
36216;DHT22;22257;52.232;21.084;2022-07-23T12:46:02;32.60;69.40
36216;DHT22;22257;52.232;21.084;2022-07-23T12:48:30;33.30;68.90
36216;DHT22;22257;52.232;21.084;2022-07-23T12:51:02;34.10;66.60
36216;DHT22;22257;52.232;21.084;2022-07-23T12:53:40;34.40;64.50
36216;DHT22;22257;52.232;21.084;2022-07-23T12:56:09;34.10;64.00
36216;DHT22;22257;52.232;21.084;2022-07-23T12:58:56;33.80;64.30
36216;DHT22;22257;52.232;21.084;2022-07-23T13:01:25;33.80;66.20
36216;DHT22;22257;52.232;21.084;2022-07-23T13:06:24;34.10;64.50
36216;DHT22;22257;52.232;21.084;2022-07-23T13:08:51;34.40;64.70
36216;DHT22;22257;52.232;21.084;2022-07-23T13:11:17;34.60;64.00
36216;DHT22;22257;52.232;21.084;2022-07-23T13:13:43;34.80;63.20
36216;DHT22;22257;52.232;21.084;2022-07-23T13:16:09;34.50;62.80
36216;DHT22;22257;52.232;21.084;2022-07-23T13:18:35;34.30;62.80
36216;DHT22;22257;52.232;21.084;2022-07-23T13:21:02;34.20;62.80
36216;DHT22;22257;52.232;21.084;2022-07-23T13:23:28;33.90;63.00
36216;DHT22;22257;52.232;21.084;2022-07-23T13:25:54;33.70;63.20
36216;DHT22;22257;52.232;21.084;2022-07-23T13:28:22;33.40;63.60
36216;DHT22;22257;52.232;21.084;2022-07-23T13:30:49;33.20;63.90
36216;DHT22;22257;52.232;21.084;2022-07-23T13:33:18;33.10;63.90
36216;DHT22;22257;52.232;21.084;2022-07-23T13:35:44;33.40;64.00
36216;DHT22;22257;52.232;21.084;2022-07-23T13:38:11;33.40;63.50
36216;DHT22;22257;52.232;21.084;2022-07-23T13:40:44;33.60;63.70
36216;DHT22;22257;52.232;21.084;2022-07-23T13:43:09;33.90;63.30
36216;DHT22;22257;52.232;21.084;2022-07-23T13:45:36;33.70;62.70
36216;DHT22;22257;52.232;21.084;2022-07-23T13:48:04;33.20;63.40
36216;DHT22;22257;52.232;21.084;2022-07-23T13:50:31;33.00;64.00
36216;DHT22;22257;52.232;21.084;2022-07-23T13:53:08;33.30;63.50
36216;DHT22;22257;52.232;21.084;2022-07-23T13:55:31;33.60;63.00
36216;DHT22;22257;52.232;21.084;2022-07-23T13:57:58;34.20;62.90
36216;DHT22;22257;52.232;21.084;2022-07-23T14:00:26;34.30;61.90
36216;DHT22;22257;52.232;21.084;2022-07-23T14:02:53;33.80;62.10
36216;DHT22;22257;52.232;21.084;2022-07-23T14:05:19;33.20;63.00
36216;DHT22;22257;52.232;21.084;2022-07-23T14:07:45;32.90;63.80
36216;DHT22;22257;52.232;21.084;2022-07-23T14:10:12;32.60;64.50
36216;DHT22;22257;52.232;21.084;2022-07-23T14:12:39;32.30;64.60
36216;DHT22;22257;52.232;21.084;2022-07-23T14:15:06;32.00;66.20
36216;DHT22;22257;52.232;21.084;2022-07-23T14:17:37;31.80;65.90
36216;DHT22;22257;52.232;21.084;2022-07-23T14:20:05;31.60;66.70
36216;DHT22;22257;52.232;21.084;2022-07-23T14:22:32;31.50;67.10
36216;DHT22;22257;52.232;21.084;2022-07-23T14:24:58;31.30;67.20
36216;DHT22;22257;52.232;21.084;2022-07-23T14:27:25;31.20;67.80
36216;DHT22;22257;52.232;21.084;2022-07-23T14:29:53;31.10;68.20
36216;DHT22;22257;52.232;21.084;2022-07-23T14:32:19;31.10;68.90
36216;DHT22;22257;52.232;21.084;2022-07-23T14:34:46;31.10;68.80
36216;DHT22;22257;52.232;21.084;2022-07-23T14:37:13;31.00;68.50
36216;DHT22;22257;52.232;21.084;2022-07-23T14:39:40;30.90;68.70
36216;DHT22;22257;52.232;21.084;2022-07-23T14:42:07;30.80;68.80
36216;DHT22;22257;52.232;21.084;2022-07-23T14:44:34;30.70;69.10
36216;DHT22;22257;52.232;21.084;2022-07-23T14:47:01;30.70;69.20
36216;DHT22;22257;52.232;21.084;2022-07-23T14:49:27;30.70;69.70
36216;DHT22;22257;52.232;21.084;2022-07-23T14:51:53;30.10;77.20
36216;DHT22;22257;52.232;21.084;2022-07-23T14:54:19;28.70;89.80
36216;DHT22;22257;52.232;21.084;2022-07-23T14:56:46;27.50;99.70
36216;DHT22;22257;52.232;21.084;2022-07-23T14:59:13;26.50;99.90
36216;DHT22;22257;52.232;21.084;2022-07-23T15:01:41;25.50;99.90
36216;DHT22;22257;52.232;21.084;2022-07-23T15:04:07;24.80;99.90
36216;DHT22;22257;52.232;21.084;2022-07-23T15:06:33;24.40;99.90
36216;DHT22;22257;52.232;21.084;2022-07-23T15:08:59;24.10;99.90
36216;DHT22;22257;52.232;21.084;2022-07-23T15:11:29;22.90;99.90
36216;DHT22;22257;52.232;21.084;2022-07-23T15:13:57;21.70;99.90
36216;DHT22;22257;52.232;21.084;2022-07-23T15:16:23;20.70;99.90
36216;DHT22;22257;52.232;21.084;2022-07-23T15:18:49;20.30;99.90
36216;DHT22;22257;52.232;21.084;2022-07-23T15:21:15;20.20;99.90
36216;DHT22;22257;52.232;21.084;2022-07-23T15:23:41;20.10;99.90
36216;DHT22;22257;52.232;21.084;2022-07-23T15:26:08;20.10;99.90
36216;DHT22;22257;52.232;21.084;2022-07-23T15:28:35;20.10;99.90
36216;DHT22;22257;52.232;21.084;2022-07-23T15:31:02;20.10;99.90
36216;DHT22;22257;52.232;21.084;2022-07-23T15:33:28;20.10;99.90
36216;DHT22;22257;52.232;21.084;2022-07-23T15:35:55;20.10;99.90
36216;DHT22;22257;52.232;21.084;2022-07-23T15:38:22;20.10;99.90
36216;DHT22;22257;52.232;21.084;2022-07-23T15:40:48;20.20;99.90
36216;DHT22;22257;52.232;21.084;2022-07-23T15:43:14;20.10;99.90
36216;DHT22;22257;52.232;21.084;2022-07-23T15:45:40;20.10;99.90
36216;DHT22;22257;52.232;21.084;2022-07-23T15:48:07;20.10;99.90
36216;DHT22;22257;52.232;21.084;2022-07-23T15:50:33;20.10;99.90
36216;DHT22;22257;52.232;21.084;2022-07-23T15:52:59;20.10;99.90
36216;DHT22;22257;52.232;21.084;2022-07-23T15:55:25;20.10;99.90
36216;DHT22;22257;52.232;21.084;2022-07-23T15:57:51;20.10;99.90
36216;DHT22;22257;52.232;21.084;2022-07-23T16:00:17;20.10;99.90